sensor_id;sensor_type;location;lat;lon;timestamp;P1;durP1;ratioP1;P2;durP2;ratioP2
65459;SDS011;52058;49.822;6.754;2023-08-21T00:01:24;5.28;;;3.58;;
65459;SDS011;52058;49.822;6.754;2023-08-21T00:03:51;5.38;;;3.47;;
65459;SDS011;52058;49.822;6.754;2023-08-21T00:06:18;4.30;;;3.80;;
65459;SDS011;52058;49.822;6.754;2023-08-21T00:08:44;7.07;;;3.63;;
65459;SDS011;52058;49.822;6.754;2023-08-21T00:11:12;7.22;;;3.80;;
65459;SDS011;52058;49.822;6.754;2023-08-21T00:13:39;6.65;;;4.28;;
65459;SDS011;52058;49.822;6.754;2023-08-21T00:16:09;7.55;;;3.90;;
65459;SDS011;52058;49.822;6.754;2023-08-21T00:18:36;6.28;;;4.47;;
65459;SDS011;52058;49.822;6.754;2023-08-21T00:21:02;8.15;;;4.15;;
65459;SDS011;52058;49.822;6.754;2023-08-21T00:23:29;6.45;;;4.10;;
65459;SDS011;52058;49.822;6.754;2023-08-21T00:25:56;6.00;;;4.07;;
65459;SDS011;52058;49.822;6.754;2023-08-21T00:28:24;6.97;;;4.22;;
65459;SDS011;52058;49.822;6.754;2023-08-21T00:30:51;7.47;;;4.32;;
65459;SDS011;52058;49.822;6.754;2023-08-21T00:33:17;7.57;;;4.13;;
65459;SDS011;52058;49.822;6.754;2023-08-21T00:35:44;6.78;;;4.60;;
65459;SDS011;52058;49.822;6.754;2023-08-21T00:38:10;7.80;;;4.50;;
65459;SDS011;52058;49.822;6.754;2023-08-21T00:40:37;5.15;;;3.92;;
65459;SDS011;52058;49.822;6.754;2023-08-21T00:43:03;5.50;;;4.10;;
65459;SDS011;52058;49.822;6.754;2023-08-21T00:45:31;5.68;;;4.07;;
65459;SDS011;52058;49.822;6.754;2023-08-21T00:47:58;6.85;;;4.40;;
65459;SDS011;52058;49.822;6.754;2023-08-21T00:50:25;6.13;;;4.50;;
65459;SDS011;52058;49.822;6.754;2023-08-21T00:52:51;9.15;;;4.70;;
65459;SDS011;52058;49.822;6.754;2023-08-21T00:55:18;6.85;;;4.40;;
65459;SDS011;52058;49.822;6.754;2023-08-21T00:57:45;6.47;;;4.22;;
65459;SDS011;52058;49.822;6.754;2023-08-21T01:00:12;8.95;;;4.65;;
65459;SDS011;52058;49.822;6.754;2023-08-21T01:02:41;5.50;;;4.80;;
65459;SDS011;52058;49.822;6.754;2023-08-21T01:05:07;6.20;;;5.15;;
65459;SDS011;52058;49.822;6.754;2023-08-21T01:07:36;6.80;;;4.80;;
65459;SDS011;52058;49.822;6.754;2023-08-21T01:10:10;12.15;;;4.57;;
65459;SDS011;52058;49.822;6.754;2023-08-21T01:12:40;6.88;;;4.85;;
65459;SDS011;52058;49.822;6.754;2023-08-21T01:15:15;8.15;;;5.15;;
65459;SDS011;52058;49.822;6.754;2023-08-21T01:17:44;6.30;;;4.38;;
65459;SDS011;52058;49.822;6.754;2023-08-21T01:20:12;7.78;;;4.32;;
65459;SDS011;52058;49.822;6.754;2023-08-21T01:22:40;6.07;;;4.78;;
65459;SDS011;52058;49.822;6.754;2023-08-21T01:25:12;11.20;;;5.40;;
65459;SDS011;52058;49.822;6.754;2023-08-21T01:27:42;8.48;;;5.53;;
65459;SDS011;52058;49.822;6.754;2023-08-21T01:30:11;8.15;;;5.38;;
65459;SDS011;52058;49.822;6.754;2023-08-21T01:32:40;9.23;;;5.82;;
65459;SDS011;52058;49.822;6.754;2023-08-21T01:35:11;5.47;;;4.72;;
65459;SDS011;52058;49.822;6.754;2023-08-21T01:37:38;10.77;;;5.22;;
65459;SDS011;52058;49.822;6.754;2023-08-21T01:40:06;8.73;;;4.82;;
65459;SDS011;52058;49.822;6.754;2023-08-21T01:42:35;6.53;;;5.18;;
65459;SDS011;52058;49.822;6.754;2023-08-21T01:45:02;6.75;;;5.00;;
65459;SDS011;52058;49.822;6.754;2023-08-21T01:47:28;6.53;;;4.97;;
65459;SDS011;52058;49.822;6.754;2023-08-21T01:49:55;8.07;;;5.25;;
65459;SDS011;52058;49.822;6.754;2023-08-21T01:52:22;10.18;;;5.60;;
65459;SDS011;52058;49.822;6.754;2023-08-21T01:54:49;9.70;;;5.03;;
65459;SDS011;52058;49.822;6.754;2023-08-21T01:57:16;7.95;;;6.03;;
65459;SDS011;52058;49.822;6.754;2023-08-21T01:59:44;7.20;;;5.60;;
65459;SDS011;52058;49.822;6.754;2023-08-21T02:02:11;8.02;;;5.57;;
65459;SDS011;52058;49.822;6.754;2023-08-21T02:04:37;9.07;;;5.45;;
65459;SDS011;52058;49.822;6.754;2023-08-21T02:07:04;12.55;;;6.20;;
65459;SDS011;52058;49.822;6.754;2023-08-21T02:09:32;7.78;;;5.20;;
65459;SDS011;52058;49.822;6.754;2023-08-21T02:12:02;10.48;;;5.97;;
65459;SDS011;52058;49.822;6.754;2023-08-21T02:14:29;8.43;;;5.85;;
65459;SDS011;52058;49.822;6.754;2023-08-21T02:16:57;6.60;;;5.28;;
65459;SDS011;52058;49.822;6.754;2023-08-21T02:19:24;6.95;;;5.38;;
65459;SDS011;52058;49.822;6.754;2023-08-21T02:21:51;8.77;;;5.88;;
65459;SDS011;52058;49.822;6.754;2023-08-21T02:24:17;7.95;;;5.70;;
65459;SDS011;52058;49.822;6.754;2023-08-21T02:26:44;9.25;;;6.55;;
65459;SDS011;52058;49.822;6.754;2023-08-21T02:29:11;7.60;;;6.15;;
65459;SDS011;52058;49.822;6.754;2023-08-21T02:31:37;7.63;;;6.07;;
65459;SDS011;52058;49.822;6.754;2023-08-21T02:34:05;6.40;;;5.80;;
65459;SDS011;52058;49.822;6.754;2023-08-21T02:36:32;7.68;;;5.88;;
65459;SDS011;52058;49.822;6.754;2023-08-21T02:38:58;6.55;;;5.78;;
65459;SDS011;52058;49.822;6.754;2023-08-21T02:41:25;8.13;;;5.57;;
65459;SDS011;52058;49.822;6.754;2023-08-21T02:43:51;10.45;;;6.13;;
65459;SDS011;52058;49.822;6.754;2023-08-21T02:46:18;7.65;;;5.85;;
65459;SDS011;52058;49.822;6.754;2023-08-21T02:48:45;9.02;;;5.95;;
65459;SDS011;52058;49.822;6.754;2023-08-21T02:51:13;8.10;;;6.22;;
65459;SDS011;52058;49.822;6.754;2023-08-21T02:53:39;10.68;;;5.72;;
65459;SDS011;52058;49.822;6.754;2023-08-21T02:56:06;9.73;;;6.10;;
65459;SDS011;52058;49.822;6.754;2023-08-21T02:58:33;9.63;;;5.70;;
65459;SDS011;52058;49.822;6.754;2023-08-21T03:00:59;7.65;;;5.93;;
65459;SDS011;52058;49.822;6.754;2023-08-21T03:03:26;9.80;;;5.70;;
65459;SDS011;52058;49.822;6.754;2023-08-21T03:05:52;8.43;;;5.57;;
65459;SDS011;52058;49.822;6.754;2023-08-21T03:08:20;8.82;;;6.28;;
65459;SDS011;52058;49.822;6.754;2023-08-21T03:10:47;9.00;;;5.70;;
65459;SDS011;52058;49.822;6.754;2023-08-21T03:13:13;6.75;;;5.28;;
65459;SDS011;52058;49.822;6.754;2023-08-21T03:15:40;7.05;;;5.55;;
65459;SDS011;52058;49.822;6.754;2023-08-21T03:18:06;5.72;;;5.13;;
65459;SDS011;52058;49.822;6.754;2023-08-21T03:20:33;8.13;;;5.80;;
65459;SDS011;52058;49.822;6.754;2023-08-21T03:22:59;8.85;;;6.10;;
65459;SDS011;52058;49.822;6.754;2023-08-21T03:25:28;12.60;;;6.43;;
65459;SDS011;52058;49.822;6.754;2023-08-21T03:27:55;8.63;;;5.70;;
65459;SDS011;52058;49.822;6.754;2023-08-21T03:30:21;10.15;;;6.05;;
65459;SDS011;52058;49.822;6.754;2023-08-21T03:32:51;7.55;;;6.50;;
65459;SDS011;52058;49.822;6.754;2023-08-21T03:35:18;7.65;;;6.03;;
65459;SDS011;52058;49.822;6.754;2023-08-21T03:37:44;7.20;;;6.15;;
65459;SDS011;52058;49.822;6.754;2023-08-21T03:40:11;8.82;;;6.53;;
65459;SDS011;52058;49.822;6.754;2023-08-21T03:42:40;12.30;;;7.05;;
65459;SDS011;52058;49.822;6.754;2023-08-21T03:45:08;11.07;;;6.38;;
65459;SDS011;52058;49.822;6.754;2023-08-21T03:47:36;11.80;;;6.45;;
65459;SDS011;52058;49.822;6.754;2023-08-21T03:50:02;10.07;;;6.10;;
65459;SDS011;52058;49.822;6.754;2023-08-21T03:52:29;10.20;;;6.55;;
65459;SDS011;52058;49.822;6.754;2023-08-21T03:54:56;9.98;;;6.70;;
65459;SDS011;52058;49.822;6.754;2023-08-21T03:57:23;11.70;;;7.00;;
65459;SDS011;52058;49.822;6.754;2023-08-21T03:59:51;8.23;;;6.60;;
65459;SDS011;52058;49.822;6.754;2023-08-21T04:02:18;8.35;;;6.18;;
65459;SDS011;52058;49.822;6.754;2023-08-21T04:04:45;11.85;;;7.00;;
65459;SDS011;52058;49.822;6.754;2023-08-21T04:07:12;11.00;;;6.97;;
65459;SDS011;52058;49.822;6.754;2023-08-21T04:09:39;15.27;;;7.30;;
65459;SDS011;52058;49.822;6.754;2023-08-21T04:12:06;9.23;;;6.95;;
65459;SDS011;52058;49.822;6.754;2023-08-21T04:14:33;11.88;;;7.43;;
65459;SDS011;52058;49.822;6.754;2023-08-21T04:17:01;9.20;;;7.10;;
65459;SDS011;52058;49.822;6.754;2023-08-21T04:19:28;9.07;;;7.18;;
65459;SDS011;52058;49.822;6.754;2023-08-21T04:21:57;9.27;;;6.78;;
65459;SDS011;52058;49.822;6.754;2023-08-21T04:24:24;11.02;;;6.93;;
65459;SDS011;52058;49.822;6.754;2023-08-21T04:26:51;9.00;;;6.82;;
65459;SDS011;52058;49.822;6.754;2023-08-21T04:29:17;9.27;;;7.35;;
65459;SDS011;52058;49.822;6.754;2023-08-21T04:31:44;12.02;;;7.68;;
65459;SDS011;52058;49.822;6.754;2023-08-21T04:34:12;9.95;;;6.68;;
65459;SDS011;52058;49.822;6.754;2023-08-21T04:36:38;12.23;;;6.70;;
65459;SDS011;52058;49.822;6.754;2023-08-21T04:39:05;9.75;;;7.05;;
65459;SDS011;52058;49.822;6.754;2023-08-21T04:41:31;12.57;;;6.88;;
65459;SDS011;52058;49.822;6.754;2023-08-21T04:43:58;8.85;;;6.47;;
65459;SDS011;52058;49.822;6.754;2023-08-21T04:46:25;8.65;;;6.22;;
65459;SDS011;52058;49.822;6.754;2023-08-21T04:48:51;12.93;;;6.82;;
65459;SDS011;52058;49.822;6.754;2023-08-21T04:51:19;10.20;;;7.30;;
65459;SDS011;52058;49.822;6.754;2023-08-21T04:53:46;9.38;;;6.88;;
65459;SDS011;52058;49.822;6.754;2023-08-21T04:56:12;11.85;;;7.43;;
65459;SDS011;52058;49.822;6.754;2023-08-21T04:58:39;13.45;;;7.32;;
65459;SDS011;52058;49.822;6.754;2023-08-21T05:01:06;11.60;;;7.85;;
65459;SDS011;52058;49.822;6.754;2023-08-21T05:03:33;12.93;;;7.50;;
65459;SDS011;52058;49.822;6.754;2023-08-21T05:06:00;11.70;;;7.93;;
65459;SDS011;52058;49.822;6.754;2023-08-21T05:08:27;17.98;;;8.10;;
65459;SDS011;52058;49.822;6.754;2023-08-21T05:10:54;11.48;;;7.88;;
65459;SDS011;52058;49.822;6.754;2023-08-21T05:13:22;10.63;;;7.68;;
65459;SDS011;52058;49.822;6.754;2023-08-21T05:15:50;13.18;;;7.93;;
65459;SDS011;52058;49.822;6.754;2023-08-21T05:18:18;18.92;;;7.78;;
65459;SDS011;52058;49.822;6.754;2023-08-21T05:20:44;11.98;;;7.35;;
65459;SDS011;52058;49.822;6.754;2023-08-21T05:23:11;11.18;;;7.85;;
65459;SDS011;52058;49.822;6.754;2023-08-21T05:25:39;11.45;;;7.82;;
65459;SDS011;52058;49.822;6.754;2023-08-21T05:28:05;11.32;;;7.30;;
65459;SDS011;52058;49.822;6.754;2023-08-21T05:30:32;10.65;;;7.15;;
65459;SDS011;52058;49.822;6.754;2023-08-21T05:33:00;8.75;;;7.35;;
65459;SDS011;52058;49.822;6.754;2023-08-21T05:35:27;7.95;;;6.55;;
65459;SDS011;52058;49.822;6.754;2023-08-21T05:37:53;11.57;;;6.50;;
65459;SDS011;52058;49.822;6.754;2023-08-21T05:40:20;10.45;;;7.07;;
65459;SDS011;52058;49.822;6.754;2023-08-21T05:42:48;12.18;;;6.95;;
65459;SDS011;52058;49.822;6.754;2023-08-21T05:45:14;9.52;;;6.68;;
65459;SDS011;52058;49.822;6.754;2023-08-21T05:47:41;10.80;;;6.80;;
65459;SDS011;52058;49.822;6.754;2023-08-21T05:50:08;8.50;;;6.55;;
65459;SDS011;52058;49.822;6.754;2023-08-21T05:52:35;8.70;;;6.63;;
65459;SDS011;52058;49.822;6.754;2023-08-21T05:55:02;8.90;;;6.70;;
65459;SDS011;52058;49.822;6.754;2023-08-21T05:57:29;12.00;;;6.57;;
65459;SDS011;52058;49.822;6.754;2023-08-21T05:59:57;12.48;;;6.63;;
65459;SDS011;52058;49.822;6.754;2023-08-21T06:02:23;6.32;;;5.72;;
65459;SDS011;52058;49.822;6.754;2023-08-21T06:04:50;7.95;;;6.53;;
65459;SDS011;52058;49.822;6.754;2023-08-21T06:07:16;8.98;;;6.40;;
65459;SDS011;52058;49.822;6.754;2023-08-21T06:09:43;9.57;;;6.50;;
65459;SDS011;52058;49.822;6.754;2023-08-21T06:12:09;8.45;;;6.72;;
65459;SDS011;52058;49.822;6.754;2023-08-21T06:14:36;7.20;;;6.25;;
65459;SDS011;52058;49.822;6.754;2023-08-21T06:17:04;8.68;;;6.15;;
65459;SDS011;52058;49.822;6.754;2023-08-21T06:19:31;8.30;;;6.00;;
65459;SDS011;52058;49.822;6.754;2023-08-21T06:21:57;9.07;;;6.07;;
65459;SDS011;52058;49.822;6.754;2023-08-21T06:24:24;9.75;;;6.53;;
65459;SDS011;52058;49.822;6.754;2023-08-21T06:26:51;9.55;;;6.07;;
65459;SDS011;52058;49.822;6.754;2023-08-21T06:29:18;8.88;;;5.78;;
65459;SDS011;52058;49.822;6.754;2023-08-21T06:31:45;9.85;;;6.40;;
65459;SDS011;52058;49.822;6.754;2023-08-21T06:34:13;9.27;;;6.30;;
65459;SDS011;52058;49.822;6.754;2023-08-21T06:36:40;10.98;;;7.00;;
65459;SDS011;52058;49.822;6.754;2023-08-21T06:39:06;7.07;;;5.90;;
65459;SDS011;52058;49.822;6.754;2023-08-21T06:41:33;7.95;;;6.93;;
65459;SDS011;52058;49.822;6.754;2023-08-21T06:43:59;9.88;;;7.50;;
65459;SDS011;52058;49.822;6.754;2023-08-21T06:46:26;8.40;;;6.57;;
65459;SDS011;52058;49.822;6.754;2023-08-21T06:48:53;12.05;;;7.35;;
65459;SDS011;52058;49.822;6.754;2023-08-21T06:51:21;10.02;;;6.97;;
65459;SDS011;52058;49.822;6.754;2023-08-21T06:53:47;10.23;;;7.20;;
65459;SDS011;52058;49.822;6.754;2023-08-21T06:56:14;10.55;;;7.22;;
65459;SDS011;52058;49.822;6.754;2023-08-21T06:58:41;9.27;;;6.68;;
65459;SDS011;52058;49.822;6.754;2023-08-21T07:01:08;9.82;;;7.65;;
65459;SDS011;52058;49.822;6.754;2023-08-21T07:03:34;9.55;;;6.88;;
65459;SDS011;52058;49.822;6.754;2023-08-21T07:06:01;10.82;;;7.07;;
65459;SDS011;52058;49.822;6.754;2023-08-21T07:08:29;10.05;;;7.28;;
65459;SDS011;52058;49.822;6.754;2023-08-21T07:10:55;10.70;;;7.43;;
65459;SDS011;52058;49.822;6.754;2023-08-21T07:13:22;9.73;;;7.43;;
65459;SDS011;52058;49.822;6.754;2023-08-21T07:15:49;8.98;;;7.03;;
65459;SDS011;52058;49.822;6.754;2023-08-21T07:18:20;10.27;;;7.65;;
65459;SDS011;52058;49.822;6.754;2023-08-21T07:20:46;8.88;;;7.80;;
65459;SDS011;52058;49.822;6.754;2023-08-21T07:23:13;10.60;;;8.52;;
65459;SDS011;52058;49.822;6.754;2023-08-21T07:25:41;8.63;;;7.72;;
65459;SDS011;52058;49.822;6.754;2023-08-21T07:28:07;10.75;;;8.30;;
65459;SDS011;52058;49.822;6.754;2023-08-21T07:30:36;10.82;;;8.57;;
65459;SDS011;52058;49.822;6.754;2023-08-21T07:33:03;11.10;;;8.55;;
65459;SDS011;52058;49.822;6.754;2023-08-21T07:35:30;10.43;;;8.10;;
65459;SDS011;52058;49.822;6.754;2023-08-21T07:37:57;9.25;;;7.70;;
65459;SDS011;52058;49.822;6.754;2023-08-21T07:40:23;10.05;;;7.25;;
65459;SDS011;52058;49.822;6.754;2023-08-21T07:42:51;9.27;;;8.02;;
65459;SDS011;52058;49.822;6.754;2023-08-21T07:45:18;10.13;;;7.80;;
65459;SDS011;52058;49.822;6.754;2023-08-21T07:47:45;10.55;;;8.13;;
65459;SDS011;52058;49.822;6.754;2023-08-21T07:50:11;8.77;;;7.68;;
65459;SDS011;52058;49.822;6.754;2023-08-21T07:52:39;8.57;;;7.18;;
65459;SDS011;52058;49.822;6.754;2023-08-21T07:55:06;11.70;;;7.53;;
65459;SDS011;52058;49.822;6.754;2023-08-21T07:57:34;9.30;;;7.85;;
65459;SDS011;52058;49.822;6.754;2023-08-21T08:00:02;7.80;;;7.00;;
65459;SDS011;52058;49.822;6.754;2023-08-21T08:02:29;9.85;;;7.50;;
65459;SDS011;52058;49.822;6.754;2023-08-21T08:04:56;9.38;;;7.93;;
65459;SDS011;52058;49.822;6.754;2023-08-21T08:07:22;12.60;;;8.02;;
65459;SDS011;52058;49.822;6.754;2023-08-21T08:09:49;9.77;;;7.30;;
65459;SDS011;52058;49.822;6.754;2023-08-21T08:12:16;13.23;;;7.28;;
65459;SDS011;52058;49.822;6.754;2023-08-21T08:14:42;8.30;;;7.18;;
65459;SDS011;52058;49.822;6.754;2023-08-21T08:17:10;7.18;;;6.45;;
65459;SDS011;52058;49.822;6.754;2023-08-21T08:19:37;8.05;;;6.60;;
65459;SDS011;52058;49.822;6.754;2023-08-21T08:22:04;7.20;;;6.50;;
65459;SDS011;52058;49.822;6.754;2023-08-21T08:24:30;7.32;;;5.50;;
65459;SDS011;52058;49.822;6.754;2023-08-21T08:26:57;10.65;;;5.72;;
65459;SDS011;52058;49.822;6.754;2023-08-21T08:29:23;10.45;;;6.55;;
65459;SDS011;52058;49.822;6.754;2023-08-21T08:31:50;6.50;;;5.38;;
65459;SDS011;52058;49.822;6.754;2023-08-21T08:34:18;9.15;;;5.78;;
65459;SDS011;52058;49.822;6.754;2023-08-21T08:36:45;6.18;;;5.57;;
65459;SDS011;52058;49.822;6.754;2023-08-21T08:39:12;9.60;;;6.78;;
65459;SDS011;52058;49.822;6.754;2023-08-21T08:41:41;5.30;;;4.80;;
65459;SDS011;52058;49.822;6.754;2023-08-21T08:44:23;8.68;;;6.15;;
65459;SDS011;52058;49.822;6.754;2023-08-21T08:46:51;7.22;;;4.90;;
65459;SDS011;52058;49.822;6.754;2023-08-21T08:49:19;8.05;;;4.40;;
65459;SDS011;52058;49.822;6.754;2023-08-21T08:51:47;5.50;;;4.20;;
65459;SDS011;52058;49.822;6.754;2023-08-21T08:54:15;4.65;;;3.97;;
65459;SDS011;52058;49.822;6.754;2023-08-21T08:56:43;6.38;;;3.95;;
65459;SDS011;52058;49.822;6.754;2023-08-21T08:59:09;5.03;;;4.53;;
65459;SDS011;52058;49.822;6.754;2023-08-21T09:01:36;10.38;;;4.90;;
65459;SDS011;52058;49.822;6.754;2023-08-21T09:04:02;5.32;;;4.78;;
65459;SDS011;52058;49.822;6.754;2023-08-21T09:06:30;6.10;;;4.10;;
65459;SDS011;52058;49.822;6.754;2023-08-21T09:08:58;5.63;;;4.72;;
65459;SDS011;52058;49.822;6.754;2023-08-21T09:11:25;6.60;;;4.47;;
65459;SDS011;52058;49.822;6.754;2023-08-21T09:13:53;8.02;;;4.97;;
65459;SDS011;52058;49.822;6.754;2023-08-21T09:16:21;3.92;;;3.63;;
65459;SDS011;52058;49.822;6.754;2023-08-21T09:18:51;5.47;;;4.72;;
65459;SDS011;52058;49.822;6.754;2023-08-21T09:21:19;4.70;;;3.88;;
65459;SDS011;52058;49.822;6.754;2023-08-21T09:23:48;4.95;;;4.45;;
65459;SDS011;52058;49.822;6.754;2023-08-21T09:26:19;6.78;;;4.55;;
65459;SDS011;52058;49.822;6.754;2023-08-21T09:28:46;5.85;;;4.10;;
65459;SDS011;52058;49.822;6.754;2023-08-21T09:31:14;5.55;;;4.40;;
65459;SDS011;52058;49.822;6.754;2023-08-21T09:33:41;5.60;;;5.10;;
65459;SDS011;52058;49.822;6.754;2023-08-21T09:36:09;4.97;;;4.30;;
65459;SDS011;52058;49.822;6.754;2023-08-21T09:38:38;4.90;;;4.40;;
65459;SDS011;52058;49.822;6.754;2023-08-21T09:41:07;5.93;;;4.30;;
65459;SDS011;52058;49.822;6.754;2023-08-21T09:43:37;5.53;;;4.60;;
65459;SDS011;52058;49.822;6.754;2023-08-21T09:46:07;7.78;;;4.90;;
65459;SDS011;52058;49.822;6.754;2023-08-21T09:48:34;4.95;;;4.45;;
65459;SDS011;52058;49.822;6.754;2023-08-21T09:51:02;6.78;;;4.47;;
65459;SDS011;52058;49.822;6.754;2023-08-21T09:53:30;5.38;;;4.68;;
65459;SDS011;52058;49.822;6.754;2023-08-21T09:55:57;6.93;;;4.72;;
65459;SDS011;52058;49.822;6.754;2023-08-21T09:58:29;4.63;;;4.22;;
65459;SDS011;52058;49.822;6.754;2023-08-21T10:00:56;4.30;;;3.90;;
65459;SDS011;52058;49.822;6.754;2023-08-21T10:03:23;6.55;;;3.88;;
65459;SDS011;52058;49.822;6.754;2023-08-21T10:05:51;4.85;;;4.35;;
65459;SDS011;52058;49.822;6.754;2023-08-21T10:08:23;4.95;;;4.47;;
65459;SDS011;52058;49.822;6.754;2023-08-21T10:10:51;8.80;;;4.80;;
65459;SDS011;52058;49.822;6.754;2023-08-21T10:13:18;4.18;;;3.78;;
65459;SDS011;52058;49.822;6.754;2023-08-21T10:15:46;6.10;;;3.92;;
65459;SDS011;52058;49.822;6.754;2023-08-21T10:18:19;4.70;;;4.20;;
65459;SDS011;52058;49.822;6.754;2023-08-21T10:20:48;4.20;;;3.80;;
65459;SDS011;52058;49.822;6.754;2023-08-21T10:23:24;6.28;;;3.90;;
65459;SDS011;52058;49.822;6.754;2023-08-21T10:25:56;4.60;;;3.83;;
65459;SDS011;52058;49.822;6.754;2023-08-21T10:28:23;5.43;;;3.58;;
65459;SDS011;52058;49.822;6.754;2023-08-21T10:30:51;5.25;;;3.90;;
65459;SDS011;52058;49.822;6.754;2023-08-21T10:33:17;6.93;;;3.75;;
65459;SDS011;52058;49.822;6.754;2023-08-21T10:36:13;6.75;;;3.90;;
65459;SDS011;52058;49.822;6.754;2023-08-21T10:41:29;6.75;;;4.13;;
65459;SDS011;52058;49.822;6.754;2023-08-21T10:43:56;5.13;;;3.47;;
65459;SDS011;52058;49.822;6.754;2023-08-21T10:46:24;5.20;;;3.40;;
65459;SDS011;52058;49.822;6.754;2023-08-21T10:48:50;7.75;;;3.25;;
65459;SDS011;52058;49.822;6.754;2023-08-21T10:51:17;5.07;;;3.35;;
65459;SDS011;52058;49.822;6.754;2023-08-21T10:53:45;4.35;;;3.17;;
65459;SDS011;52058;49.822;6.754;2023-08-21T10:56:11;3.63;;;3.00;;
65459;SDS011;52058;49.822;6.754;2023-08-21T10:58:38;5.53;;;3.38;;
65459;SDS011;52058;49.822;6.754;2023-08-21T11:01:07;4.45;;;3.13;;
65459;SDS011;52058;49.822;6.754;2023-08-21T11:03:35;4.05;;;2.97;;
65459;SDS011;52058;49.822;6.754;2023-08-21T11:06:04;7.15;;;3.17;;
65459;SDS011;52058;49.822;6.754;2023-08-21T11:08:32;3.72;;;2.90;;
65459;SDS011;52058;49.822;6.754;2023-08-21T11:10:59;6.43;;;3.10;;
65459;SDS011;52058;49.822;6.754;2023-08-21T11:13:26;4.38;;;2.80;;
65459;SDS011;52058;49.822;6.754;2023-08-21T11:15:59;4.65;;;2.67;;
65459;SDS011;52058;49.822;6.754;2023-08-21T11:18:30;3.85;;;2.53;;
65459;SDS011;52058;49.822;6.754;2023-08-21T11:21:06;2.77;;;2.37;;
65459;SDS011;52058;49.822;6.754;2023-08-21T11:23:34;4.75;;;2.30;;
65459;SDS011;52058;49.822;6.754;2023-08-21T11:26:02;3.60;;;1.83;;
65459;SDS011;52058;49.822;6.754;2023-08-21T11:28:29;3.17;;;1.80;;
65459;SDS011;52058;49.822;6.754;2023-08-21T11:30:56;2.17;;;1.98;;
65459;SDS011;52058;49.822;6.754;2023-08-21T11:33:24;2.05;;;1.80;;
65459;SDS011;52058;49.822;6.754;2023-08-21T11:35:52;2.13;;;1.77;;
65459;SDS011;52058;49.822;6.754;2023-08-21T11:38:20;2.17;;;1.55;;
65459;SDS011;52058;49.822;6.754;2023-08-21T11:40:55;2.05;;;1.70;;
65459;SDS011;52058;49.822;6.754;2023-08-21T11:43:33;4.50;;;2.08;;
65459;SDS011;52058;49.822;6.754;2023-08-21T11:46:00;3.22;;;1.98;;
65459;SDS011;52058;49.822;6.754;2023-08-21T11:48:28;2.00;;;1.80;;
65459;SDS011;52058;49.822;6.754;2023-08-21T11:50:54;4.53;;;1.88;;
65459;SDS011;52058;49.822;6.754;2023-08-21T11:53:32;4.00;;;2.10;;
65459;SDS011;52058;49.822;6.754;2023-08-21T11:56:02;3.05;;;1.90;;
65459;SDS011;52058;49.822;6.754;2023-08-21T11:58:29;2.47;;;2.10;;
65459;SDS011;52058;49.822;6.754;2023-08-21T12:01:01;3.53;;;2.20;;
65459;SDS011;52058;49.822;6.754;2023-08-21T12:03:29;2.83;;;2.10;;
65459;SDS011;52058;49.822;6.754;2023-08-21T12:05:56;5.07;;;2.28;;
65459;SDS011;52058;49.822;6.754;2023-08-21T12:08:23;3.35;;;2.30;;
65459;SDS011;52058;49.822;6.754;2023-08-21T12:10:51;3.33;;;2.28;;
65459;SDS011;52058;49.822;6.754;2023-08-21T12:13:18;3.45;;;2.30;;
65459;SDS011;52058;49.822;6.754;2023-08-21T12:15:44;3.28;;;2.20;;
65459;SDS011;52058;49.822;6.754;2023-08-21T12:18:13;3.67;;;2.10;;
65459;SDS011;52058;49.822;6.754;2023-08-21T12:20:40;5.13;;;2.58;;
65459;SDS011;52058;49.822;6.754;2023-08-21T12:23:06;4.07;;;2.47;;
65459;SDS011;52058;49.822;6.754;2023-08-21T12:25:33;3.28;;;2.38;;
65459;SDS011;52058;49.822;6.754;2023-08-21T12:28:01;2.88;;;2.10;;
65459;SDS011;52058;49.822;6.754;2023-08-21T12:30:28;3.45;;;2.40;;
65459;SDS011;52058;49.822;6.754;2023-08-21T12:32:55;2.83;;;2.13;;
65459;SDS011;52058;49.822;6.754;2023-08-21T12:35:21;3.33;;;2.28;;
65459;SDS011;52058;49.822;6.754;2023-08-21T12:37:48;3.10;;;2.20;;
65459;SDS011;52058;49.822;6.754;2023-08-21T12:40:14;3.63;;;2.17;;
65459;SDS011;52058;49.822;6.754;2023-08-21T12:42:41;2.45;;;2.10;;
65459;SDS011;52058;49.822;6.754;2023-08-21T12:45:09;4.85;;;2.45;;
65459;SDS011;52058;49.822;6.754;2023-08-21T12:47:37;4.40;;;2.38;;
65459;SDS011;52058;49.822;6.754;2023-08-21T12:50:04;3.53;;;2.40;;
65459;SDS011;52058;49.822;6.754;2023-08-21T12:52:33;2.65;;;2.08;;
65459;SDS011;52058;49.822;6.754;2023-08-21T12:54:59;2.83;;;2.00;;
65459;SDS011;52058;49.822;6.754;2023-08-21T12:57:28;3.10;;;2.00;;
65459;SDS011;52058;49.822;6.754;2023-08-21T12:59:55;2.20;;;1.90;;
65459;SDS011;52058;49.822;6.754;2023-08-21T13:02:23;2.30;;;2.10;;
65459;SDS011;52058;49.822;6.754;2023-08-21T13:04:52;3.20;;;1.90;;
65459;SDS011;52058;49.822;6.754;2023-08-21T13:07:18;2.55;;;1.98;;
65459;SDS011;52058;49.822;6.754;2023-08-21T13:09:45;2.10;;;1.90;;
65459;SDS011;52058;49.822;6.754;2023-08-21T13:12:12;2.80;;;2.05;;
65459;SDS011;52058;49.822;6.754;2023-08-21T13:14:38;3.20;;;1.80;;
65459;SDS011;52058;49.822;6.754;2023-08-21T13:17:06;1.73;;;1.58;;
65459;SDS011;52058;49.822;6.754;2023-08-21T13:19:34;3.83;;;1.80;;
65459;SDS011;52058;49.822;6.754;2023-08-21T13:22:00;2.88;;;1.85;;
65459;SDS011;52058;49.822;6.754;2023-08-21T13:24:27;3.00;;;1.67;;
65459;SDS011;52058;49.822;6.754;2023-08-21T13:26:55;2.50;;;1.75;;
65459;SDS011;52058;49.822;6.754;2023-08-21T13:29:22;2.85;;;1.40;;
65459;SDS011;52058;49.822;6.754;2023-08-21T13:31:48;2.40;;;1.50;;
65459;SDS011;52058;49.822;6.754;2023-08-21T13:34:15;3.00;;;1.75;;
65459;SDS011;52058;49.822;6.754;2023-08-21T13:36:43;2.97;;;1.60;;
65459;SDS011;52058;49.822;6.754;2023-08-21T13:39:09;2.15;;;1.50;;
65459;SDS011;52058;49.822;6.754;2023-08-21T13:41:38;2.38;;;1.48;;
65459;SDS011;52058;49.822;6.754;2023-08-21T13:44:04;1.98;;;1.30;;
65459;SDS011;52058;49.822;6.754;2023-08-21T13:46:32;3.83;;;1.40;;
65459;SDS011;52058;49.822;6.754;2023-08-21T13:48:59;4.00;;;1.50;;
65459;SDS011;52058;49.822;6.754;2023-08-21T13:51:25;2.95;;;1.40;;
65459;SDS011;52058;49.822;6.754;2023-08-21T13:53:53;1.95;;;1.52;;
65459;SDS011;52058;49.822;6.754;2023-08-21T13:56:20;1.35;;;1.25;;
65459;SDS011;52058;49.822;6.754;2023-08-21T13:58:46;2.85;;;1.48;;
65459;SDS011;52058;49.822;6.754;2023-08-21T14:01:13;2.28;;;1.30;;
65459;SDS011;52058;49.822;6.754;2023-08-21T14:03:39;2.28;;;1.50;;
65459;SDS011;52058;49.822;6.754;2023-08-21T14:06:07;1.80;;;1.50;;
65459;SDS011;52058;49.822;6.754;2023-08-21T14:08:36;3.13;;;1.50;;
65459;SDS011;52058;49.822;6.754;2023-08-21T14:11:04;1.55;;;1.40;;
65459;SDS011;52058;49.822;6.754;2023-08-21T14:13:30;2.08;;;1.40;;
65459;SDS011;52058;49.822;6.754;2023-08-21T14:15:57;1.60;;;1.40;;
65459;SDS011;52058;49.822;6.754;2023-08-21T14:18:23;2.47;;;1.38;;
65459;SDS011;52058;49.822;6.754;2023-08-21T14:20:50;4.50;;;1.40;;
65459;SDS011;52058;49.822;6.754;2023-08-21T14:23:16;5.10;;;1.52;;
65459;SDS011;52058;49.822;6.754;2023-08-21T14:25:43;3.05;;;1.30;;
65459;SDS011;52058;49.822;6.754;2023-08-21T14:28:11;3.63;;;1.33;;
65459;SDS011;52058;49.822;6.754;2023-08-21T14:30:37;1.45;;;1.30;;
65459;SDS011;52058;49.822;6.754;2023-08-21T14:33:04;2.33;;;1.33;;
65459;SDS011;52058;49.822;6.754;2023-08-21T14:35:31;1.80;;;1.60;;
65459;SDS011;52058;49.822;6.754;2023-08-21T14:37:57;2.38;;;1.30;;
65459;SDS011;52058;49.822;6.754;2023-08-21T14:40:24;2.22;;;1.30;;
65459;SDS011;52058;49.822;6.754;2023-08-21T14:42:50;2.70;;;1.50;;
65459;SDS011;52058;49.822;6.754;2023-08-21T14:45:18;2.03;;;1.40;;
65459;SDS011;52058;49.822;6.754;2023-08-21T14:47:45;2.25;;;1.30;;
65459;SDS011;52058;49.822;6.754;2023-08-21T14:50:11;3.67;;;1.30;;